Time;durP1;ratioP1;P1;durP2;ratioP2;P2;SDS_P1;SDS_P2;PMS_P1;PMS_P2;Temp;Humidity;BMP_temperature;BMP_pressure;BME280_temperature;BME280_humidity;BME280_pressure;Samples;Min_cycle;Max_cycle;Signal;HPM_P1;HPM_P2
2024/04/07 00:01:46;;;;;;;5.25;2.42;;;;;;;14.55;100.00;100366.50;4986091;28;20428;-86
2024/04/07 00:04:12;;;;;;;6.57;2.47;;;;;;;14.46;100.00;100355.50;4986511;28;20425;-86
2024/04/07 00:06:40;;;;;;;5.07;2.38;;;;;;;14.37;100.00;100360.91;4987747;28;20430;-85
2024/04/07 00:09:06;;;;;;;7.03;2.33;;;;;;;14.40;100.00;100359.47;4983590;28;20876;-85
2024/04/07 00:11:34;;;;;;;5.65;2.30;;;;;;;14.43;100.00;100359.66;4984840;28;20494;-85
2024/04/07 00:14:00;;;;;;;4.50;2.20;;;;;;;14.38;100.00;100354.31;4967323;28;20440;-85
2024/04/07 00:16:28;;;;;;;7.78;2.60;;;;;;;14.38;100.00;100356.25;4989012;28;20436;-85
2024/04/07 00:18:56;;;;;;;6.70;2.17;;;;;;;14.38;100.00;100354.31;4971073;28;20445;-85
2024/04/07 00:21:23;;;;;;;5.00;2.45;;;;;;;14.32;100.00;100349.28;4985668;28;20428;-85
2024/04/07 00:23:50;;;;;;;5.90;2.13;;;;;;;14.35;100.00;100351.38;4985456;28;20443;-85
2024/04/07 00:26:17;;;;;;;5.78;2.40;;;;;;;14.35;100.00;100352.22;4987072;28;20436;-86
2024/04/07 00:28:44;;;;;;;5.68;2.30;;;;;;;14.33;100.00;100343.50;4970094;28;20503;-85
2024/04/07 00:31:11;;;;;;;6.20;2.28;;;;;;;14.39;100.00;100338.69;4970150;28;20444;-84
2024/04/07 00:33:38;;;;;;;6.28;2.25;;;;;;;14.45;100.00;100340.19;4986197;28;20416;-85
2024/04/07 00:36:09;;;;;;;4.97;2.40;;;;;;;14.49;100.00;100330.22;4971228;28;20440;-85
2024/04/07 00:38:35;;;;;;;5.60;2.38;;;;;;;14.48;100.00;100333.28;4977295;28;20912;-85
2024/04/07 00:41:03;;;;;;;5.40;2.50;;;;;;;14.48;100.00;100338.75;4979933;28;20436;-85
2024/04/07 00:43:30;;;;;;;6.82;2.50;;;;;;;14.52;100.00;100343.28;4984926;28;20777;-85
2024/04/07 00:45:59;;;;;;;7.53;2.55;;;;;;;14.45;100.00;100321.81;4989240;28;20451;-85
2024/04/07 00:48:26;;;;;;;5.40;2.30;;;;;;;14.44;100.00;100328.44;4973108;28;20444;-85
2024/04/07 00:50:56;;;;;;;5.88;2.42;;;;;;;14.33;100.00;100323.53;4990565;28;20424;-85
2024/04/07 00:53:24;;;;;;;4.95;2.33;;;;;;;14.33;100.00;100327.06;4986714;28;20435;-85
2024/04/07 00:55:51;;;;;;;8.10;2.50;;;;;;;14.38;100.00;100312.47;4987830;28;20429;-85
2024/04/07 00:58:18;;;;;;;4.72;2.40;;;;;;;14.30;100.00;100322.22;4999589;28;20444;-85
2024/04/07 01:00:47;;;;;;;4.57;2.30;;;;;;;14.32;100.00;100314.53;4984578;28;20432;-85
2024/04/07 01:03:15;;;;;;;4.93;2.13;;;;;;;14.32;100.00;100306.31;4987140;28;20459;-85
2024/04/07 01:05:43;;;;;;;4.05;2.10;;;;;;;14.26;100.00;100302.09;4983830;28;20428;-85
2024/04/07 01:08:11;;;;;;;5.72;2.28;;;;;;;14.16;100.00;100296.88;4987754;28;20442;-85
2024/04/07 01:10:40;;;;;;;7.82;2.40;;;;;;;14.23;100.00;100294.50;4987853;28;20444;-85
2024/04/07 01:13:07;;;;;;;6.10;2.20;;;;;;;14.23;100.00;100295.31;4975770;28;20440;-86
2024/04/07 01:15:35;;;;;;;4.50;2.10;;;;;;;14.16;100.00;100292.22;4970261;28;20429;-85
2024/04/07 01:18:02;;;;;;;3.90;1.92;;;;;;;14.06;100.00;100287.81;4986160;28;20426;-86
2024/04/07 01:20:32;;;;;;;6.68;2.30;;;;;;;14.02;100.00;100289.56;4973190;28;20436;-85
2024/04/07 01:22:58;;;;;;;4.03;2.10;;;;;;;14.07;100.00;100289.44;4974516;28;20440;-85
2024/04/07 01:25:27;;;;;;;5.63;2.30;;;;;;;14.06;100.00;100279.59;4976607;28;20433;-85
2024/04/07 01:27:56;;;;;;;5.28;2.28;;;;;;;14.02;100.00;100289.56;4976171;28;20437;-85
2024/04/07 01:30:24;;;;;;;4.05;2.28;;;;;;;14.05;100.00;100282.66;4983858;28;23810;-85
2024/04/07 01:32:51;;;;;;;5.20;2.50;;;;;;;14.05;100.00;100274.44;4970512;28;20432;-85
2024/04/07 01:35:18;;;;;;;5.47;2.40;;;;;;;14.04;100.00;100275.56;4980929;28;20443;-85
2024/04/07 01:37:45;;;;;;;5.33;2.40;;;;;;;13.99;100.00;100276.50;5004409;28;21238;-86
2024/04/07 01:40:13;;;;;;;5.28;2.20;;;;;;;14.04;100.00;100259.16;4971318;28;20433;-85
2024/04/07 01:42:41;;;;;;;5.00;2.30;;;;;;;14.01;100.00;100257.84;4976859;28;20425;-85
2024/04/07 01:45:10;;;;;;;4.45;2.20;;;;;;;13.99;100.00;100257.38;4968992;28;20445;-85
2024/04/07 01:47:37;;;;;;;4.77;2.23;;;;;;;14.05;100.00;100256.09;4990431;28;20927;-85
2024/04/07 01:50:05;;;;;;;5.35;2.40;;;;;;;14.04;100.00;100256.41;4988269;28;20432;-86
2024/04/07 01:52:32;;;;;;;4.65;2.40;;;;;;;14.11;100.00;100252.13;4986801;28;20432;-85
2024/04/07 01:55:00;;;;;;;5.38;2.20;;;;;;;14.13;100.00;100260.00;4975645;28;20463;-85
2024/04/07 01:57:26;;;;;;;4.82;2.55;;;;;;;14.20;100.00;100265.03;4971479;28;20441;-86
2024/04/07 01:59:57;;;;;;;6.97;2.30;;;;;;;14.20;100.00;100265.03;4990970;28;21796;-86
2024/04/07 02:02:23;;;;;;;5.47;2.33;;;;;;;14.28;100.00;100267.81;4972340;28;20444;-86
2024/04/07 02:04:51;;;;;;;4.65;2.38;;;;;;;14.25;100.00;100282.13;4986308;28;20459;-86
2024/04/07 02:07:18;;;;;;;4.63;2.27;;;;;;;14.31;100.00;100291.00;4989337;28;20428;-85
2024/04/07 02:09:47;;;;;;;4.50;2.40;;;;;;;14.15;100.00;100285.13;4973271;28;20442;-85
2024/04/07 02:12:14;;;;;;;6.47;2.42;;;;;;;14.15;100.00;100276.13;4993064;28;20417;-86
2024/04/07 02:14:42;;;;;;;5.80;2.42;;;;;;;14.20;100.00;100285.00;4992813;28;21224;-85
2024/04/07 02:17:11;;;;;;;4.90;2.40;;;;;;;14.20;100.00;100285.00;4991021;28;20436;-85
2024/04/07 02:19:38;;;;;;;4.88;2.55;;;;;;;14.18;100.00;100272.75;4988285;28;20793;-86
2024/04/07 02:22:05;;;;;;;5.43;2.55;;;;;;;14.11;100.00;100274.00;4992270;28;20476;-85
2024/04/07 02:24:32;;;;;;;5.13;2.38;;;;;;;14.05;100.00;100263.50;4990970;28;20428;-85
2024/04/07 02:26:59;;;;;;;5.43;2.67;;;;;;;14.09;100.00;100262.56;4989962;28;20446;-85
2024/04/07 02:29:27;;;;;;;5.50;2.50;;;;;;;14.09;100.00;100261.75;4990384;28;20428;-85
2024/04/07 02:31:53;;;;;;;6.78;2.53;;;;;;;14.04;100.00;100250.94;4970205;28;20790;-85
2024/04/07 02:34:22;;;;;;;6.38;2.50;;;;;;;13.99;100.00;100243.69;4990460;28;20421;-85
2024/04/07 02:36:48;;;;;;;4.60;2.60;;;;;;;13.99;100.00;100240.13;4987299;28;20432;-85
2024/04/07 02:39:17;;;;;;;7.65;2.60;;;;;;;14.00;100.00;100249.94;4973370;28;20440;-85
2024/04/07 02:41:44;;;;;;;7.57;2.60;;;;;;;13.98;100.00;100244.78;4976766;28;20436;-85
2024/04/07 02:44:12;;;;;;;6.32;2.65;;;;;;;13.89;100.00;100247.50;4988835;28;20439;-85
2024/04/07 02:49:25;;;;;;;6.70;2.40;;;;;;;13.91;100.00;100245.22;4984782;28;20789;-85
2024/04/07 02:51:53;;;;;;;5.20;2.58;;;;;;;14.00;100.00;100242.53;4970304;28;20433;-85
2024/04/07 02:54:20;;;;;;;6.38;2.83;;;;;;;14.03;100.00;100243.84;4990323;28;20432;-85
2024/04/07 02:56:47;;;;;;;4.85;2.50;;;;;;;13.95;100.00;100246.22;4973799;28;20434;-85
2024/04/07 02:59:14;;;;;;;6.78;2.70;;;;;;;13.86;100.00;100237.16;4990834;28;20789;-85
2024/04/07 03:01:41;;;;;;;7.32;2.80;;;;;;;13.72;100.00;100241.91;4970389;28;20421;-85
2024/04/07 03:04:09;;;;;;;7.13;2.53;;;;;;;13.83;100.00;100243.25;4990216;28;20425;-85
2024/04/07 03:06:37;;;;;;;7.82;2.90;;;;;;;13.77;100.00;100228.91;4970349;28;20436;-85
2024/04/07 03:09:06;;;;;;;7.70;2.90;;;;;;;13.73;100.00;100238.84;4975278;28;21070;-85
2024/04/07 03:11:34;;;;;;;6.78;3.00;;;;;;;13.80;100.00;100232.16;4986876;28;20799;-85
2024/04/07 03:14:01;;;;;;;5.37;2.70;;;;;;;13.81;100.00;100226.38;4970826;28;20436;-84
2024/04/07 03:16:28;;;;;;;5.25;2.63;;;;;;;13.81;100.00;100220.91;4989179;28;20424;-85
2024/04/07 03:18:55;;;;;;;5.83;2.83;;;;;;;13.77;100.00;100231.63;4978433;28;20434;-86
2024/04/07 03:21:23;;;;;;;5.35;2.75;;;;;;;13.82;100.00;100236.16;4971814;28;20437;-84
2024/04/07 03:23:51;;;;;;;6.93;2.90;;;;;;;13.88;100.00;100243.13;4985299;28;20441;-85
2024/04/07 03:26:18;;;;;;;6.78;2.78;;;;;;;13.89;100.00;100244.75;4968811;28;20924;-84
2024/04/07 03:28:47;;;;;;;5.55;2.75;;;;;;;13.95;100.00;100245.44;4983234;28;20433;-84
2024/04/07 03:31:15;;;;;;;5.70;2.40;;;;;;;13.97;100.00;100247.84;4983241;28;20439;-85
2024/04/07 03:33:41;;;;;;;4.85;2.70;;;;;;;14.00;100.00;100245.28;4984839;28;20424;-85
2024/04/07 03:36:09;;;;;;;6.73;2.50;;;;;;;13.92;100.00;100252.34;4967535;28;20444;-85
2024/04/07 03:38:36;;;;;;;5.93;2.70;;;;;;;13.94;100.00;100254.75;4968514;28;20455;-85
2024/04/07 03:41:05;;;;;;;6.20;2.58;;;;;;;13.92;100.00;100260.53;4973980;28;20428;-85
2024/04/07 03:43:33;;;;;;;4.53;2.55;;;;;;;13.88;100.00;100254.06;4982493;28;20430;-85
2024/04/07 03:46:01;;;;;;;7.03;2.80;;;;;;;13.78;100.00;100260.59;4967978;28;20451;-85
2024/04/07 03:48:28;;;;;;;8.32;2.88;;;;;;;13.71;100.00;100271.19;4965686;28;21105;-85
2024/04/07 03:50:56;;;;;;;6.95;2.97;;;;;;;13.66;100.00;100274.03;4970123;28;20432;-84
2024/04/07 03:53:26;;;;;;;6.57;2.80;;;;;;;13.66;100.00;100257.63;4981416;28;20422;-85
2024/04/07 03:55:53;;;;;;;4.40;2.60;;;;;;;13.60;100.00;100254.22;4967283;28;20444;-85
2024/04/07 03:58:21;;;;;;;5.25;2.90;;;;;;;13.56;100.00;100255.94;4984745;28;20424;-85
2024/04/07 04:00:49;;;;;;;7.57;2.70;;;;;;;13.60;100.00;100254.22;4986351;28;20791;-84
2024/04/07 04:03:15;;;;;;;8.97;2.97;;;;;;;13.65;100.00;100244.28;4969934;28;20441;-85
2024/04/07 04:05:43;;;;;;;6.20;2.90;;;;;;;13.63;100.00;100241.03;4976883;28;20451;-85
2024/04/07 04:08:09;;;;;;;6.20;2.90;;;;;;;13.58;100.00;100239.22;4987893;28;20428;-85
2024/04/07 04:10:38;;;;;;;7.10;3.00;;;;;;;13.52;100.00;100241.28;4970661;28;20436;-85
2024/04/07 04:13:05;;;;;;;6.97;2.92;;;;;;;13.49;100.00;100232.88;4986779;28;20431;-84
2024/04/07 04:15:35;;;;;;;7.65;2.80;;;;;;;13.44;100.00;100215.50;4971909;28;20523;-85
2024/04/07 04:18:04;;;;;;;6.67;2.87;;;;;;;13.49;100.00;100214.59;4972423;28;20433;-85
2024/04/07 04:20:31;;;;;;;10.32;3.83;;;;;;;13.49;100.00;100221.97;4983484;28;20454;-85
2024/04/07 04:22:58;;;;;;;9.88;4.72;;;;;;;13.53;100.00;100223.75;4987029;28;20437;-85
2024/04/07 04:25:26;;;;;;;9.20;4.70;;;;;;;13.54;100.00;100239.03;4969613;28;20436;-85
2024/04/07 04:27:53;;;;;;;7.00;3.50;;;;;;;13.52;100.00;100243.19;4966212;28;20439;-85
2024/04/07 04:30:20;;;;;;;10.77;5.68;;;;;;;13.55;100.00;100240.66;4984579;28;20440;-84
2024/04/07 04:32:48;;;;;;;12.20;6.90;;;;;;;13.46;100.00;100238.97;4990012;28;20436;-85
2024/04/07 04:35:16;;;;;;;10.27;4.70;;;;;;;13.41;100.00;100250.84;4987740;28;21127;-85
2024/04/07 04:37:42;;;;;;;7.72;3.58;;;;;;;13.37;100.00;100249.84;4970554;28;20436;-85
2024/04/07 04:40:11;;;;;;;6.38;3.38;;;;;;;13.35;100.00;100269.28;4983944;28;20983;-85
2024/04/07 04:42:37;;;;;;;6.90;2.93;;;;;;;13.30;100.00;100263.91;4972650;28;20937;-85
2024/04/07 04:45:06;;;;;;;8.55;3.63;;;;;;;13.27;100.00;100280.91;4971847;28;20797;-85
2024/04/07 04:47:33;;;;;;;6.80;3.23;;;;;;;13.32;100.00;100288.19;4980729;28;20516;-85
2024/04/07 04:50:02;;;;;;;7.93;3.63;;;;;;;13.32;100.00;100289.00;4987199;28;20451;-85
2024/04/07 04:52:29;;;;;;;6.50;3.17;;;;;;;13.26;100.00;100287.50;4970314;28;20432;-84
2024/04/07 04:54:57;;;;;;;7.25;3.08;;;;;;;13.35;100.00;100309.44;4984205;28;20432;-85
2024/04/07 04:57:23;;;;;;;7.25;3.03;;;;;;;13.35;100.00;100315.72;4994573;28;20440;-85
2024/04/07 04:59:53;;;;;;;5.70;3.07;;;;;;;13.34;100.00;100318.75;4990141;28;20435;-85
2024/04/07 05:02:19;;;;;;;4.93;2.88;;;;;;;13.40;100.00;100326.56;4969752;28;20447;-85
2024/04/07 05:04:47;;;;;;;5.28;2.72;;;;;;;13.42;100.00;100323.53;4988289;28;20424;-84
2024/04/07 05:07:15;;;;;;;5.45;2.70;;;;;;;13.58;100.00;100334.94;4969313;28;20443;-85
2024/04/07 05:09:42;;;;;;;5.40;2.63;;;;;;;13.56;100.00;100350.81;4986031;28;20888;-85
2024/04/07 05:12:09;;;;;;;5.70;2.33;;;;;;;13.64;100.00;100341.09;4988019;28;20432;-85
2024/04/07 05:14:36;;;;;;;6.15;2.40;;;;;;;13.70;100.00;100351.59;4969696;28;20438;-85
2024/04/07 05:17:03;;;;;;;5.63;2.35;;;;;;;13.59;100.00;100358.44;4974974;28;20433;-85
2024/04/07 05:19:31;;;;;;;5.50;2.40;;;;;;;13.65;100.00;100361.84;4971498;28;20425;-85
2024/04/07 05:21:57;;;;;;;5.93;2.50;;;;;;;13.82;100.00;100367.44;4984398;28;20428;-85
2024/04/07 05:24:28;;;;;;;6.28;2.10;;;;;;;13.97;100.00;100377.22;4986728;28;20429;-85
2024/04/07 05:26:57;;;;;;;4.80;2.10;;;;;;;14.22;100.00;100385.94;4986180;28;20437;-84
2024/04/07 05:29:24;;;;;;;5.70;2.20;;;;;;;14.31;100.00;100384.06;4987247;28;20426;-85
2024/04/07 05:31:51;;;;;;;5.18;1.90;;;;;;;14.73;100.00;100390.13;4985973;28;20431;-85
2024/04/07 05:34:18;;;;;;;7.30;1.90;;;;;;;14.84;100.00;100407.09;4973770;28;20433;-85
2024/04/07 05:36:45;;;;;;;4.30;1.70;;;;;;;14.90;100.00;100418.72;4971857;28;20432;-85
2024/04/07 05:39:14;;;;;;;6.47;1.92;;;;;;;14.91;100.00;100428.56;4970297;28;20448;-85
2024/04/07 05:41:42;;;;;;;4.00;1.97;;;;;;;14.98;100.00;100445.34;4984768;28;20436;-85
2024/04/07 05:44:09;;;;;;;5.50;2.03;;;;;;;15.02;100.00;100460.03;4987375;28;20422;-85
2024/04/07 05:46:36;;;;;;;8.98;2.03;;;;;;;15.12;100.00;100489.94;4989256;28;20426;-85
2024/04/07 05:49:03;;;;;;;4.53;1.83;;;;;;;15.21;100.00;100500.13;4989310;28;20433;-85
2024/04/07 05:51:29;;;;;;;7.57;2.10;;;;;;;15.34;100.00;100515.66;4990425;28;20436;-85
2024/04/07 05:53:57;;;;;;;7.10;2.10;;;;;;;15.36;100.00;100524.38;4986907;28;20433;-85
2024/04/07 05:56:24;;;;;;;9.48;2.35;;;;;;;15.32;100.00;100553.56;4986157;28;20429;-85
2024/04/07 05:58:52;;;;;;;10.98;2.30;;;;;;;15.37;100.00;100539.72;4968284;28;20430;-85
2024/04/07 06:01:19;;;;;;;4.83;1.90;;;;;;;15.19;100.00;100574.47;4968642;28;20440;-84
2024/04/07 06:03:47;;;;;;;4.72;1.90;;;;;;;15.07;100.00;100590.66;4970090;28;21146;-84
2024/04/07 06:06:13;;;;;;;3.63;1.70;;;;;;;14.99;100.00;100594.16;4970883;28;20425;-84
2024/04/07 06:08:41;;;;;;;4.80;1.80;;;;;;;14.82;100.00;100605.78;4984175;28;20435;-85
2024/04/07 06:11:08;;;;;;;6.43;1.80;;;;;;;14.84;100.00;100603.56;4986779;28;20434;-84
2024/04/07 06:13:35;;;;;;;5.35;1.67;;;;;;;14.84;100.00;100612.56;4969360;28;20432;-84
2024/04/07 06:16:04;;;;;;;4.40;1.40;;;;;;;14.85;100.00;100603.22;4970175;28;20436;-85
2024/04/07 06:18:34;;;;;;;7.82;1.90;;;;;;;14.80;100.00;100614.31;4969363;28;20432;-85
2024/04/07 06:21:01;;;;;;;6.35;1.65;;;;;;;14.80;100.00;100619.78;4986608;28;20440;-84
2024/04/07 06:23:29;;;;;;;6.03;1.50;;;;;;;14.83;100.00;100616.44;4984721;28;20424;-85
2024/04/07 06:25:55;;;;;;;3.47;1.30;;;;;;;14.77;100.00;100637.66;4969605;28;20953;-85
2024/04/07 06:28:23;;;;;;;4.25;1.30;;;;;;;14.73;100.00;100625.69;4983362;28;20447;-84
2024/04/07 06:30:49;;;;;;;6.28;1.50;;;;;;;14.79;100.00;100626.41;4985334;28;20432;-85
2024/04/07 06:33:21;;;;;;;7.05;1.63;;;;;;;14.87;100.00;100631.13;4985641;28;20432;-85
2024/04/07 06:35:47;;;;;;;8.48;1.65;;;;;;;14.95;100.00;100624.09;4982575;28;20414;-85
2024/04/07 06:38:15;;;;;;;5.15;1.77;;;;;;;14.98;100.00;100633.63;4971018;28;20437;-85
2024/04/07 06:40:41;;;;;;;7.90;1.67;;;;;;;14.95;100.00;100643.28;4984348;28;20424;-86
2024/04/07 06:43:09;;;;;;;5.50;1.45;;;;;;;14.94;100.00;100660.84;4981819;28;20425;-84
2024/04/07 06:45:35;;;;;;;4.97;1.50;;;;;;;14.95;100.00;100648.75;4958854;28;20433;-85
2024/04/07 06:48:04;;;;;;;6.88;1.83;;;;;;;14.98;100.00;100658.28;4975372;28;21130;-85
2024/04/07 06:50:32;;;;;;;4.00;1.45;;;;;;;15.03;100.00;100645.28;4959805;28;21270;-85
2024/04/07 06:53:00;;;;;;;6.13;1.67;;;;;;;15.07;100.00;100648.22;4982040;28;20435;-84
2024/04/07 06:55:27;;;;;;;6.18;1.80;;;;;;;15.17;100.00;100663.59;4966791;28;20433;-85
2024/04/07 06:58:08;;;;;;;6.90;1.67;;;;;;;15.19;100.00;100651.22;4963773;28;20464;-91
2024/04/07 07:00:35;;;;;;;3.95;1.40;;;;;;;15.25;100.00;100643.66;4983927;28;20916;-85
2024/04/07 07:03:02;;;;;;;3.80;1.37;;;;;;;15.28;100.00;100656.75;4986401;28;20430;-85
2024/04/07 07:05:29;;;;;;;4.28;1.40;;;;;;;15.37;100.00;100645.81;4966014;28;20929;-85
2024/04/07 07:07:59;;;;;;;7.38;2.08;;;;;;;15.46;100.00;100657.66;4969458;28;20436;-86
2024/04/07 07:10:35;;;;;;;5.53;1.60;;;;;;;15.45;100.00;100658.78;4973308;28;20812;-85
2024/04/07 07:13:03;;;;;;;7.13;1.42;;;;;;;15.43;100.00;100648.13;4969187;28;20425;-86
2024/04/07 07:15:30;;;;;;;5.10;1.40;;;;;;;15.43;100.00;100656.34;4984922;28;21222;-84
2024/04/07 07:17:58;;;;;;;5.47;1.70;;;;;;;15.44;100.00;100657.19;4987468;28;20441;-86
2024/04/07 07:20:24;;;;;;;6.43;1.80;;;;;;;15.48;100.00;100672.69;4986999;28;20443;-86
2024/04/07 07:22:52;;;;;;;5.78;1.70;;;;;;;15.45;100.00;100692.53;4968806;28;20797;-85
2024/04/07 07:25:21;;;;;;;8.68;1.50;;;;;;;15.33;100.00;100683.22;4965893;28;20431;-84
2024/04/07 07:27:48;;;;;;;7.38;1.50;;;;;;;15.39;100.00;100687.47;4967164;28;20573;-86
2024/04/07 07:30:15;;;;;;;7.03;1.40;;;;;;;15.51;100.00;100730.78;4981908;28;20439;-85
2024/04/07 07:32:42;;;;;;;5.32;1.50;;;;;;;15.61;100.00;100731.31;4984472;28;20436;-86
2024/04/07 07:35:09;;;;;;;5.85;1.50;;;;;;;15.55;100.00;100716.13;4985684;28;20424;-86
2024/04/07 07:37:36;;;;;;;5.37;1.40;;;;;;;15.64;100.00;100703.25;4981032;28;20436;-86
2024/04/07 07:40:03;;;;;;;7.47;1.50;;;;;;;15.46;100.00;100716.06;4978973;28;20443;-86
2024/04/07 07:42:32;;;;;;;5.78;1.63;;;;;;;15.48;100.00;100732.22;4965361;28;20434;-85
2024/04/07 07:44:58;;;;;;;4.35;1.30;;;;;;;15.58;100.00;100742.94;4962294;28;20441;-84
2024/04/07 07:47:26;;;;;;;4.88;1.40;;;;;;;15.52;100.00;100724.16;4978135;28;20435;-86
2024/04/07 07:49:52;;;;;;;5.65;1.30;;;;;;;15.68;100.00;100705.41;4981037;28;20432;-84
2024/04/07 07:52:20;;;;;;;4.70;1.85;;;;;;;15.86;100.00;100689.88;4973735;28;20428;-85
2024/04/07 07:54:46;;;;;;;5.40;1.38;;;;;;;16.04;100.00;100707.22;4999200;28;20813;-84
2024/04/07 07:57:16;;;;;;;4.60;1.80;;;;;;;15.95;100.00;100704.44;4977287;28;20790;-85
2024/04/07 07:59:44;;;;;;;5.30;1.17;;;;;;;16.16;100.00;100699.22;4959880;28;20428;-84
2024/04/07 08:02:12;;;;;;;5.07;1.58;;;;;;;16.22;100.00;100699.88;4979727;28;20444;-85
2024/04/07 08:04:38;;;;;;;4.03;1.00;;;;;;;16.23;100.00;100705.03;4976179;28;20930;-85
2024/04/07 08:07:06;;;;;;;2.50;1.00;;;;;;;16.20;100.00;100710.34;4962224;28;20432;-85
2024/04/07 08:09:32;;;;;;;6.35;1.30;;;;;;;16.28;100.00;100709.56;4974723;28;20432;-84
2024/04/07 08:12:00;;;;;;;3.72;1.30;;;;;;;16.22;100.00;100710.84;4977694;28;20439;-85
2024/04/07 08:14:26;;;;;;;3.30;1.10;;;;;;;16.23;100.00;100705.03;4957845;28;20447;-85
2024/04/07 08:16:55;;;;;;;5.57;1.30;;;;;;;16.41;100.00;100711.41;4956674;28;20896;-85
2024/04/07 08:19:23;;;;;;;4.47;1.10;;;;;;;16.55;100.00;100700.28;4966089;28;20440;-85
2024/04/07 08:21:51;;;;;;;4.33;1.20;;;;;;;16.59;100.00;100715.00;4976335;28;21420;-85
2024/04/07 08:24:18;;;;;;;3.70;1.10;;;;;;;16.57;100.00;100719.19;4963143;28;20432;-85
2024/04/07 08:26:46;;;;;;;4.13;1.55;;;;;;;16.69;100.00;100711.13;4959185;28;21088;-85
2024/04/07 08:29:13;;;;;;;4.90;1.00;;;;;;;16.86;100.00;100712.31;4975957;28;20782;-85
2024/04/07 08:31:41;;;;;;;3.28;1.20;;;;;;;16.81;100.00;100707.78;4987195;28;20439;-85
2024/04/07 08:34:09;;;;;;;2.80;1.10;;;;;;;16.76;100.00;100721.66;4982326;28;20436;-84
2024/04/07 08:36:36;;;;;;;3.05;1.00;;;;;;;16.84;100.00;100726.38;4983045;28;20875;-86
2024/04/07 08:39:03;;;;;;;4.50;1.30;;;;;;;16.86;100.00;100731.53;4977689;28;23947;-86
2024/04/07 08:41:30;;;;;;;3.00;1.07;;;;;;;16.89;100.00;100744.66;4965662;28;20437;-86
2024/04/07 08:43:58;;;;;;;6.85;1.25;;;;;;;16.74;100.00;100740.44;4999350;28;20448;-86
2024/04/07 08:46:27;;;;;;;3.90;1.10;;;;;;;16.49;100.00;100751.03;4967083;28;21229;-86
2024/04/07 08:48:55;;;;;;;3.28;0.93;;;;;;;16.67;100.00;100768.38;4965367;28;20432;-86
2024/04/07 08:51:25;;;;;;;3.95;1.20;;;;;;;16.83;100.00;100782.47;4981843;28;20979;-85
2024/04/07 08:53:51;;;;;;;2.58;0.85;;;;;;;16.82;100.00;100769.84;4965492;28;20442;-86
2024/04/07 08:56:20;;;;;;;2.35;0.80;;;;;;;16.77;100.00;100779.06;4970276;28;20436;-86
2024/04/07 08:58:47;;;;;;;3.83;0.90;;;;;;;16.80;100.00;100772.91;4965888;28;20932;-85
2024/04/07 09:01:16;;;;;;;2.13;0.90;;;;;;;16.55;100.00;100777.22;4969602;28;20436;-85
2024/04/07 09:03:43;;;;;;;3.87;0.93;;;;;;;16.67;100.00;100771.13;4987341;28;20424;-86
2024/04/07 09:06:10;;;;;;;4.68;0.90;;;;;;;16.43;100.00;100763.25;4981317;28;20428;-82
2024/04/07 09:08:41;;;;;;;1.38;0.60;;;;;;;16.32;100.00;100743.50;4981754;28;20417;-83
2024/04/07 09:11:10;;;;;;;1.83;0.82;;;;;;;16.34;100.00;100744.03;4977400;28;20434;-84
2024/04/07 09:13:36;;;;;;;1.23;0.70;;;;;;;16.11;100.00;100741.31;4961705;28;20436;-82
2024/04/07 09:16:05;;;;;;;2.42;0.80;;;;;;;16.03;100.00;100744.84;4978689;28;20440;-83
2024/04/07 09:18:32;;;;;;;1.83;0.63;;;;;;;16.18;100.00;100756.53;4983377;28;20432;-84
2024/04/07 09:20:59;;;;;;;1.55;0.60;;;;;;;16.32;100.00;100751.75;4983585;28;20456;-83
2024/04/07 09:23:26;;;;;;;1.43;0.63;;;;;;;16.41;100.00;100758.09;4964676;28;21218;-83
2024/04/07 09:25:55;;;;;;;2.47;0.63;;;;;;;16.44;100.00;100760.19;4982439;28;20451;-83
2024/04/07 09:28:21;;;;;;;1.95;0.82;;;;;;;16.45;100.00;100756.34;4964740;28;20432;-82
2024/04/07 09:30:49;;;;;;;2.90;0.90;;;;;;;16.49;100.00;100753.78;4969178;28;20844;-83
2024/04/07 09:33:15;;;;;;;2.83;0.80;;;;;;;16.55;100.00;100760.72;4982990;28;20439;-83
2024/04/07 09:35:45;;;;;;;2.67;0.77;;;;;;;16.66;100.00;100764.00;4968575;28;20433;-84
2024/04/07 09:38:12;;;;;;;2.67;0.73;;;;;;;16.71;100.00;100766.59;4966894;28;20915;-86
2024/04/07 09:40:40;;;;;;;2.47;0.60;;;;;;;16.77;100.00;100778.25;4971293;28;20920;-85
2024/04/07 09:43:08;;;;;;;1.55;0.70;;;;;;;16.88;100.00;100765.81;4987707;28;20436;-85
2024/04/07 09:45:39;;;;;;;2.53;0.80;;;;;;;16.82;100.00;100767.09;4987915;28;20427;-86
2024/04/07 09:48:09;;;;;;;3.80;0.90;;;;;;;16.71;100.00;100755.59;5002813;28;20438;-86
2024/04/07 09:50:41;;;;;;;1.92;0.60;;;;;;;16.58;100.00;100759.28;4984257;28;20440;-85
2024/04/07 09:53:13;;;;;;;4.22;0.90;;;;;;;16.54;100.00;100758.31;4988875;28;20441;-85
2024/04/07 09:55:43;;;;;;;1.48;0.70;;;;;;;16.58;100.00;100762.03;4986922;28;20434;-85
2024/04/07 09:58:12;;;;;;;3.60;0.70;;;;;;;16.52;100.00;100755.03;4964470;28;20456;-85
2024/04/07 10:00:39;;;;;;;1.98;0.80;;;;;;;16.56;100.00;100754.09;4971472;28;20433;-86
2024/04/07 10:03:06;;;;;;;4.18;0.90;;;;;;;16.56;100.00;100750.53;4970356;28;20438;-87
2024/04/07 10:05:33;;;;;;;3.50;1.02;;;;;;;16.61;100.00;100751.22;4973063;28;20436;-86
2024/04/07 10:08:00;;;;;;;1.30;0.80;;;;;;;16.64;100.00;100767.06;4990135;28;20833;-86
2024/04/07 10:10:28;;;;;;;3.17;1.15;;;;;;;16.71;100.00;100765.78;4986255;28;20438;-86
2024/04/07 10:12:54;;;;;;;3.20;0.90;;;;;;;16.83;100.00;100758.56;4985386;28;20428;-86
2024/04/07 10:15:23;;;;;;;2.90;1.00;;;;;;;16.87;100.00;100747.72;4984120;28;20428;-86
2024/04/07 10:17:50;;;;;;;3.10;0.98;;;;;;;16.92;100.00;100758.59;4971592;28;20448;-86
2024/04/07 10:20:19;;;;;;;3.03;0.90;;;;;;;17.10;100.00;100761.38;4987276;28;20453;-86
2024/04/07 10:22:45;;;;;;;4.38;1.00;;;;;;;17.17;100.00;100757.00;4971866;28;20432;-86
2024/04/07 10:25:13;;;;;;;3.10;0.98;;;;;;;17.19;100.00;100751.16;4969669;28;20450;-85
2024/04/07 10:27:44;;;;;;;4.20;1.00;;;;;;;17.24;100.00;100755.72;4982625;28;20429;-86
2024/04/07 10:30:12;;;;;;;3.58;1.30;;;;;;;17.17;100.00;100742.44;5003365;28;20441;-87
2024/04/07 10:32:40;;;;;;;5.50;1.13;;;;;;;17.36;100.00;100753.13;4988115;28;20422;-87
2024/04/07 10:35:09;;;;;;;5.55;1.00;;;;;;;17.31;100.00;100745.81;4970788;28;20439;-85
2024/04/07 10:37:38;;;;;;;2.78;0.80;;;;;;;17.34;100.00;100750.69;4974581;28;20428;-87
2024/04/07 10:40:09;;;;;;;3.25;1.10;;;;;;;17.59;100.00;100756.47;4975316;28;20436;-86
2024/04/07 10:42:37;;;;;;;3.20;0.98;;;;;;;17.55;100.00;100746.47;4974648;28;20451;-86
2024/04/07 10:45:06;;;;;;;4.72;1.00;;;;;;;17.64;100.00;100761.81;4986269;28;20547;-86
2024/04/07 10:47:33;;;;;;;3.30;1.13;;;;;;;17.79;100.00;100757.75;4983763;28;20823;-87
2024/04/07 10:50:04;;;;;;;4.03;0.90;;;;;;;17.84;100.00;100756.78;4970433;28;20920;-86
2024/04/07 10:52:31;;;;;;;3.35;1.10;;;;;;;17.94;100.00;100752.88;4970500;28;20441;-86
2024/04/07 10:55:00;;;;;;;3.33;1.00;;;;;;;17.88;100.00;100754.97;4969261;28;20431;-86
2024/04/07 10:57:27;;;;;;;4.70;1.00;;;;;;;17.87;100.00;100750.63;4971820;28;20439;-82
2024/04/07 10:59:54;;;;;;;3.30;1.30;;;;;;;18.00;100.00;100763.41;4969426;28;21205;-86
2024/04/07 11:02:21;;;;;;;5.40;1.17;;;;;;;18.13;100.00;100760.78;4970201;28;20449;-87
2024/04/07 11:04:48;;;;;;;2.80;0.90;;;;;;;18.17;100.00;100770.81;4969285;28;20433;-86
2024/04/07 11:07:16;;;;;;;4.38;1.00;;;;;;;18.36;100.00;100775.91;4983810;28;21483;-86
2024/04/07 11:09:44;;;;;;;3.67;0.90;;;;;;;18.36;100.00;100769.59;4986713;28;20429;-86
2024/04/07 11:12:13;;;;;;;6.95;3.20;;;;;;;18.56;100.00;100765.31;4968920;28;20436;-86
2024/04/07 11:14:40;;;;;;;4.88;1.85;;;;;;;18.44;100.00;100767.97;4982911;28;20437;-86
2024/04/07 11:17:07;;;;;;;4.27;1.03;;;;;;;18.37;100.00;100768.47;4969238;28;20444;-87
2024/04/07 11:19:35;;;;;;;3.50;1.08;;;;;;;18.36;100.00;100777.88;4974482;28;20429;-87
2024/04/07 11:22:03;;;;;;;1.80;0.90;;;;;;;18.43;100.00;100778.16;4979068;28;20432;-87